sensor_id;sensor_type;location;lat;lon;timestamp;P1;durP1;ratioP1;P2;durP2;ratioP2
4915;SDS011;70796;52.406;13.230;2023-10-19T00:00:49;22.13;;;13.90;;
4915;SDS011;70796;52.406;13.230;2023-10-19T00:03:17;19.17;;;12.20;;
4915;SDS011;70796;52.406;13.230;2023-10-19T00:05:44;21.67;;;13.70;;
4915;SDS011;70796;52.406;13.230;2023-10-19T00:08:13;31.13;;;14.13;;
4915;SDS011;70796;52.406;13.230;2023-10-19T00:10:48;22.20;;;13.13;;
4915;SDS011;70796;52.406;13.230;2023-10-19T00:13:17;20.17;;;14.10;;
4915;SDS011;70796;52.406;13.230;2023-10-19T00:15:45;25.97;;;13.87;;
4915;SDS011;70796;52.406;13.230;2023-10-19T00:18:15;25.90;;;13.70;;
4915;SDS011;70796;52.406;13.230;2023-10-19T00:20:42;21.07;;;14.03;;
4915;SDS011;70796;52.406;13.230;2023-10-19T00:23:12;20.70;;;13.33;;
4915;SDS011;70796;52.406;13.230;2023-10-19T00:25:45;24.90;;;14.07;;
4915;SDS011;70796;52.406;13.230;2023-10-19T00:28:17;26.47;;;14.33;;
4915;SDS011;70796;52.406;13.230;2023-10-19T00:30:45;25.53;;;14.33;;
4915;SDS011;70796;52.406;13.230;2023-10-19T00:33:14;22.77;;;13.67;;
4915;SDS011;70796;52.406;13.230;2023-10-19T00:35:48;24.27;;;14.10;;
4915;SDS011;70796;52.406;13.230;2023-10-19T00:38:25;24.90;;;15.17;;
4915;SDS011;70796;52.406;13.230;2023-10-19T00:41:06;29.50;;;14.23;;
4915;SDS011;70796;52.406;13.230;2023-10-19T00:43:33;27.27;;;14.17;;
4915;SDS011;70796;52.406;13.230;2023-10-19T00:46:08;22.00;;;13.77;;
4915;SDS011;70796;52.406;13.230;2023-10-19T00:48:44;21.57;;;13.50;;
4915;SDS011;70796;52.406;13.230;2023-10-19T00:51:16;23.47;;;14.17;;
4915;SDS011;70796;52.406;13.230;2023-10-19T00:53:59;22.00;;;13.80;;
4915;SDS011;70796;52.406;13.230;2023-10-19T00:56:27;20.50;;;13.70;;
4915;SDS011;70796;52.406;13.230;2023-10-19T00:58:58;23.03;;;14.80;;
4915;SDS011;70796;52.406;13.230;2023-10-19T01:01:54;23.07;;;14.50;;
4915;SDS011;70796;52.406;13.230;2023-10-19T01:04:24;31.53;;;14.03;;
4915;SDS011;70796;52.406;13.230;2023-10-19T01:06:58;27.80;;;15.27;;
4915;SDS011;70796;52.406;13.230;2023-10-19T01:09:30;21.87;;;12.80;;
4915;SDS011;70796;52.406;13.230;2023-10-19T01:12:04;24.47;;;14.10;;
4915;SDS011;70796;52.406;13.230;2023-10-19T01:15:05;26.10;;;14.67;;
4915;SDS011;70796;52.406;13.230;2023-10-19T01:17:52;19.90;;;13.50;;
4915;SDS011;70796;52.406;13.230;2023-10-19T01:20:20;29.33;;;15.40;;
4915;SDS011;70796;52.406;13.230;2023-10-19T01:23:08;22.93;;;14.60;;
4915;SDS011;70796;52.406;13.230;2023-10-19T01:25:44;24.10;;;15.30;;
4915;SDS011;70796;52.406;13.230;2023-10-19T01:28:25;29.63;;;14.70;;
4915;SDS011;70796;52.406;13.230;2023-10-19T01:30:55;22.50;;;14.90;;
4915;SDS011;70796;52.406;13.230;2023-10-19T01:33:21;24.77;;;15.80;;
4915;SDS011;70796;52.406;13.230;2023-10-19T01:35:48;21.33;;;14.63;;
4915;SDS011;70796;52.406;13.230;2023-10-19T01:38:35;26.00;;;14.67;;
4915;SDS011;70796;52.406;13.230;2023-10-19T01:41:03;27.87;;;15.60;;
4915;SDS011;70796;52.406;13.230;2023-10-19T01:43:40;27.00;;;14.33;;
4915;SDS011;70796;52.406;13.230;2023-10-19T01:46:07;28.13;;;13.60;;
4915;SDS011;70796;52.406;13.230;2023-10-19T01:48:40;24.67;;;14.70;;
4915;SDS011;70796;52.406;13.230;2023-10-19T01:51:07;27.10;;;15.07;;
4915;SDS011;70796;52.406;13.230;2023-10-19T01:53:37;23.23;;;14.40;;
4915;SDS011;70796;52.406;13.230;2023-10-19T01:56:06;22.23;;;15.20;;
4915;SDS011;70796;52.406;13.230;2023-10-19T01:58:36;26.50;;;14.87;;
4915;SDS011;70796;52.406;13.230;2023-10-19T02:01:03;21.17;;;14.03;;
4915;SDS011;70796;52.406;13.230;2023-10-19T02:03:35;23.70;;;14.00;;
4915;SDS011;70796;52.406;13.230;2023-10-19T02:06:02;26.93;;;14.80;;
4915;SDS011;70796;52.406;13.230;2023-10-19T02:08:37;23.83;;;14.47;;
4915;SDS011;70796;52.406;13.230;2023-10-19T02:11:05;24.13;;;14.73;;
4915;SDS011;70796;52.406;13.230;2023-10-19T02:13:40;27.00;;;15.90;;
4915;SDS011;70796;52.406;13.230;2023-10-19T02:16:06;24.57;;;14.63;;
4915;SDS011;70796;52.406;13.230;2023-10-19T02:18:34;22.60;;;14.53;;
4915;SDS011;70796;52.406;13.230;2023-10-19T02:21:01;23.70;;;15.23;;
4915;SDS011;70796;52.406;13.230;2023-10-19T02:23:32;24.97;;;14.30;;
4915;SDS011;70796;52.406;13.230;2023-10-19T02:26:01;23.93;;;15.07;;
4915;SDS011;70796;52.406;13.230;2023-10-19T02:28:29;29.30;;;15.73;;
4915;SDS011;70796;52.406;13.230;2023-10-19T02:30:58;32.03;;;15.40;;
4915;SDS011;70796;52.406;13.230;2023-10-19T02:33:37;27.83;;;14.00;;
4915;SDS011;70796;52.406;13.230;2023-10-19T02:36:04;24.73;;;13.67;;
4915;SDS011;70796;52.406;13.230;2023-10-19T02:38:30;22.60;;;13.70;;
4915;SDS011;70796;52.406;13.230;2023-10-19T02:40:57;25.30;;;14.87;;
4915;SDS011;70796;52.406;13.230;2023-10-19T02:43:24;30.33;;;15.83;;
4915;SDS011;70796;52.406;13.230;2023-10-19T02:45:50;21.83;;;13.90;;
4915;SDS011;70796;52.406;13.230;2023-10-19T02:48:17;25.00;;;14.97;;
4915;SDS011;70796;52.406;13.230;2023-10-19T02:50:44;24.13;;;14.20;;
4915;SDS011;70796;52.406;13.230;2023-10-19T02:53:10;28.57;;;15.33;;
4915;SDS011;70796;52.406;13.230;2023-10-19T02:55:39;25.47;;;15.07;;
4915;SDS011;70796;52.406;13.230;2023-10-19T02:58:06;23.13;;;15.60;;
4915;SDS011;70796;52.406;13.230;2023-10-19T03:00:36;25.63;;;16.20;;
4915;SDS011;70796;52.406;13.230;2023-10-19T03:03:03;35.20;;;17.17;;
4915;SDS011;70796;52.406;13.230;2023-10-19T03:05:31;26.47;;;17.00;;
4915;SDS011;70796;52.406;13.230;2023-10-19T03:08:03;25.10;;;14.97;;
4915;SDS011;70796;52.406;13.230;2023-10-19T03:10:32;29.90;;;15.53;;
4915;SDS011;70796;52.406;13.230;2023-10-19T03:13:08;25.63;;;15.27;;
4915;SDS011;70796;52.406;13.230;2023-10-19T03:15:35;21.30;;;13.97;;
4915;SDS011;70796;52.406;13.230;2023-10-19T03:18:02;23.40;;;14.80;;
4915;SDS011;70796;52.406;13.230;2023-10-19T03:20:30;23.30;;;14.90;;
4915;SDS011;70796;52.406;13.230;2023-10-19T03:22:59;24.70;;;15.63;;
4915;SDS011;70796;52.406;13.230;2023-10-19T03:25:28;25.40;;;15.20;;
4915;SDS011;70796;52.406;13.230;2023-10-19T03:28:13;27.80;;;16.87;;
4915;SDS011;70796;52.406;13.230;2023-10-19T03:30:42;24.30;;;15.07;;
4915;SDS011;70796;52.406;13.230;2023-10-19T03:33:09;35.30;;;15.00;;
4915;SDS011;70796;52.406;13.230;2023-10-19T03:35:36;30.00;;;15.47;;
4915;SDS011;70796;52.406;13.230;2023-10-19T03:38:04;24.90;;;14.70;;
4915;SDS011;70796;52.406;13.230;2023-10-19T03:40:49;25.87;;;14.73;;
4915;SDS011;70796;52.406;13.230;2023-10-19T03:43:18;30.77;;;15.20;;
4915;SDS011;70796;52.406;13.230;2023-10-19T03:45:48;26.43;;;16.90;;
4915;SDS011;70796;52.406;13.230;2023-10-19T03:48:19;23.83;;;15.10;;
4915;SDS011;70796;52.406;13.230;2023-10-19T03:51:00;25.20;;;16.33;;
4915;SDS011;70796;52.406;13.230;2023-10-19T03:53:28;27.43;;;15.83;;
4915;SDS011;70796;52.406;13.230;2023-10-19T03:55:57;27.10;;;15.77;;
4915;SDS011;70796;52.406;13.230;2023-10-19T03:58:24;29.87;;;15.70;;
4915;SDS011;70796;52.406;13.230;2023-10-19T04:00:50;31.53;;;15.70;;
4915;SDS011;70796;52.406;13.230;2023-10-19T04:03:17;30.73;;;16.50;;
4915;SDS011;70796;52.406;13.230;2023-10-19T04:05:43;23.63;;;15.30;;
4915;SDS011;70796;52.406;13.230;2023-10-19T04:08:13;24.67;;;15.30;;
4915;SDS011;70796;52.406;13.230;2023-10-19T04:10:41;27.77;;;15.57;;
4915;SDS011;70796;52.406;13.230;2023-10-19T04:13:11;28.33;;;16.57;;
4915;SDS011;70796;52.406;13.230;2023-10-19T04:15:39;32.03;;;17.03;;
4915;SDS011;70796;52.406;13.230;2023-10-19T04:18:07;28.47;;;16.80;;
4915;SDS011;70796;52.406;13.230;2023-10-19T04:20:38;26.50;;;15.90;;
4915;SDS011;70796;52.406;13.230;2023-10-19T04:23:16;30.70;;;16.80;;
4915;SDS011;70796;52.406;13.230;2023-10-19T04:25:43;31.23;;;16.20;;
4915;SDS011;70796;52.406;13.230;2023-10-19T04:28:13;29.47;;;17.27;;
4915;SDS011;70796;52.406;13.230;2023-10-19T04:30:40;23.50;;;16.03;;
4915;SDS011;70796;52.406;13.230;2023-10-19T04:33:06;29.47;;;16.77;;
4915;SDS011;70796;52.406;13.230;2023-10-19T04:35:36;29.73;;;16.70;;
4915;SDS011;70796;52.406;13.230;2023-10-19T04:38:05;30.13;;;17.00;;
4915;SDS011;70796;52.406;13.230;2023-10-19T04:40:32;27.00;;;17.00;;
4915;SDS011;70796;52.406;13.230;2023-10-19T04:43:01;26.07;;;16.07;;
4915;SDS011;70796;52.406;13.230;2023-10-19T04:45:29;36.10;;;18.97;;
4915;SDS011;70796;52.406;13.230;2023-10-19T04:47:56;29.37;;;18.17;;
4915;SDS011;70796;52.406;13.230;2023-10-19T04:50:22;30.53;;;17.00;;
4915;SDS011;70796;52.406;13.230;2023-10-19T04:52:49;34.37;;;16.13;;
4915;SDS011;70796;52.406;13.230;2023-10-19T04:55:18;34.70;;;16.37;;
4915;SDS011;70796;52.406;13.230;2023-10-19T04:57:44;27.50;;;17.80;;
4915;SDS011;70796;52.406;13.230;2023-10-19T05:00:11;27.03;;;17.60;;
4915;SDS011;70796;52.406;13.230;2023-10-19T05:02:40;33.30;;;18.53;;
4915;SDS011;70796;52.406;13.230;2023-10-19T05:05:07;29.40;;;17.63;;
4915;SDS011;70796;52.406;13.230;2023-10-19T05:07:33;30.50;;;17.00;;
4915;SDS011;70796;52.406;13.230;2023-10-19T05:10:00;29.73;;;17.63;;
4915;SDS011;70796;52.406;13.230;2023-10-19T05:12:26;34.27;;;17.03;;
4915;SDS011;70796;52.406;13.230;2023-10-19T05:14:53;27.70;;;17.00;;
4915;SDS011;70796;52.406;13.230;2023-10-19T05:17:19;38.27;;;17.33;;
4915;SDS011;70796;52.406;13.230;2023-10-19T05:19:47;30.03;;;17.57;;
4915;SDS011;70796;52.406;13.230;2023-10-19T05:22:14;30.23;;;18.00;;
4915;SDS011;70796;52.406;13.230;2023-10-19T05:24:40;33.00;;;18.97;;
4915;SDS011;70796;52.406;13.230;2023-10-19T05:27:07;35.50;;;19.43;;
4915;SDS011;70796;52.406;13.230;2023-10-19T05:29:38;31.90;;;19.63;;
4915;SDS011;70796;52.406;13.230;2023-10-19T05:32:06;31.63;;;19.83;;
4915;SDS011;70796;52.406;13.230;2023-10-19T05:34:33;31.53;;;19.43;;
4915;SDS011;70796;52.406;13.230;2023-10-19T05:37:02;43.60;;;21.13;;
4915;SDS011;70796;52.406;13.230;2023-10-19T05:39:28;34.67;;;21.90;;
4915;SDS011;70796;52.406;13.230;2023-10-19T05:41:57;33.87;;;21.87;;
4915;SDS011;70796;52.406;13.230;2023-10-19T05:44:30;38.23;;;19.50;;
4915;SDS011;70796;52.406;13.230;2023-10-19T05:46:57;39.63;;;20.57;;
4915;SDS011;70796;52.406;13.230;2023-10-19T05:49:25;36.73;;;21.23;;
4915;SDS011;70796;52.406;13.230;2023-10-19T05:51:52;36.30;;;20.70;;
4915;SDS011;70796;52.406;13.230;2023-10-19T05:54:19;38.50;;;21.00;;
4915;SDS011;70796;52.406;13.230;2023-10-19T05:56:45;34.53;;;21.40;;
4915;SDS011;70796;52.406;13.230;2023-10-19T05:59:12;36.33;;;23.53;;
4915;SDS011;70796;52.406;13.230;2023-10-19T06:01:41;43.23;;;23.10;;
4915;SDS011;70796;52.406;13.230;2023-10-19T06:04:08;38.43;;;22.17;;
4915;SDS011;70796;52.406;13.230;2023-10-19T06:06:34;37.80;;;22.33;;
4915;SDS011;70796;52.406;13.230;2023-10-19T06:09:02;46.87;;;23.80;;
4915;SDS011;70796;52.406;13.230;2023-10-19T06:11:45;46.60;;;24.53;;
4915;SDS011;70796;52.406;13.230;2023-10-19T06:14:12;34.97;;;21.73;;
4915;SDS011;70796;52.406;13.230;2023-10-19T06:16:38;44.03;;;24.33;;
4915;SDS011;70796;52.406;13.230;2023-10-19T06:19:05;39.50;;;24.07;;
4915;SDS011;70796;52.406;13.230;2023-10-19T06:21:34;41.40;;;24.87;;
4915;SDS011;70796;52.406;13.230;2023-10-19T06:24:01;43.83;;;24.70;;
4915;SDS011;70796;52.406;13.230;2023-10-19T06:26:29;41.07;;;23.40;;
4915;SDS011;70796;52.406;13.230;2023-10-19T06:28:56;38.43;;;23.00;;
4915;SDS011;70796;52.406;13.230;2023-10-19T06:31:25;44.13;;;24.37;;
4915;SDS011;70796;52.406;13.230;2023-10-19T06:33:56;37.93;;;23.40;;
4915;SDS011;70796;52.406;13.230;2023-10-19T06:36:27;40.70;;;23.97;;
4915;SDS011;70796;52.406;13.230;2023-10-19T06:38:55;40.30;;;24.27;;
4915;SDS011;70796;52.406;13.230;2023-10-19T06:41:22;42.33;;;23.70;;
4915;SDS011;70796;52.406;13.230;2023-10-19T06:43:49;42.40;;;24.33;;
4915;SDS011;70796;52.406;13.230;2023-10-19T06:46:16;41.23;;;24.17;;
4915;SDS011;70796;52.406;13.230;2023-10-19T06:48:44;41.70;;;23.00;;
4915;SDS011;70796;52.406;13.230;2023-10-19T06:51:11;41.30;;;24.77;;
4915;SDS011;70796;52.406;13.230;2023-10-19T06:53:37;46.13;;;24.80;;
4915;SDS011;70796;52.406;13.230;2023-10-19T06:56:05;43.00;;;23.77;;
4915;SDS011;70796;52.406;13.230;2023-10-19T06:58:33;41.53;;;25.20;;
4915;SDS011;70796;52.406;13.230;2023-10-19T07:01:00;47.90;;;25.33;;
4915;SDS011;70796;52.406;13.230;2023-10-19T07:03:32;37.20;;;23.87;;
4915;SDS011;70796;52.406;13.230;2023-10-19T07:06:01;41.57;;;24.70;;
4915;SDS011;70796;52.406;13.230;2023-10-19T07:08:35;42.90;;;24.50;;
4915;SDS011;70796;52.406;13.230;2023-10-19T07:11:02;36.10;;;22.17;;
4915;SDS011;70796;52.406;13.230;2023-10-19T07:13:30;36.73;;;23.80;;
4915;SDS011;70796;52.406;13.230;2023-10-19T07:16:01;39.40;;;23.87;;
4915;SDS011;70796;52.406;13.230;2023-10-19T07:18:30;40.77;;;23.67;;
4915;SDS011;70796;52.406;13.230;2023-10-19T07:20:57;40.57;;;23.73;;
4915;SDS011;70796;52.406;13.230;2023-10-19T07:23:30;37.27;;;23.40;;
4915;SDS011;70796;52.406;13.230;2023-10-19T07:25:59;35.13;;;21.60;;
4915;SDS011;70796;52.406;13.230;2023-10-19T07:28:29;39.83;;;23.03;;
4915;SDS011;70796;52.406;13.230;2023-10-19T07:30:58;45.27;;;23.67;;
4915;SDS011;70796;52.406;13.230;2023-10-19T07:33:29;34.27;;;22.00;;
4915;SDS011;70796;52.406;13.230;2023-10-19T07:35:58;36.60;;;23.93;;
4915;SDS011;70796;52.406;13.230;2023-10-19T07:38:27;41.53;;;23.30;;
4915;SDS011;70796;52.406;13.230;2023-10-19T07:40:55;37.90;;;23.30;;
4915;SDS011;70796;52.406;13.230;2023-10-19T07:43:22;39.57;;;23.73;;
4915;SDS011;70796;52.406;13.230;2023-10-19T07:45:49;41.23;;;24.20;;
4915;SDS011;70796;52.406;13.230;2023-10-19T07:48:15;38.10;;;23.37;;
4915;SDS011;70796;52.406;13.230;2023-10-19T07:50:43;36.37;;;23.23;;
4915;SDS011;70796;52.406;13.230;2023-10-19T07:53:10;40.33;;;23.03;;
4915;SDS011;70796;52.406;13.230;2023-10-19T07:55:37;40.37;;;24.10;;
4915;SDS011;70796;52.406;13.230;2023-10-19T07:58:05;40.33;;;23.80;;
4915;SDS011;70796;52.406;13.230;2023-10-19T08:00:33;45.23;;;24.10;;
4915;SDS011;70796;52.406;13.230;2023-10-19T08:03:03;39.87;;;22.13;;
4915;SDS011;70796;52.406;13.230;2023-10-19T08:05:31;43.17;;;22.83;;
4915;SDS011;70796;52.406;13.230;2023-10-19T08:07:57;36.50;;;24.03;;
4915;SDS011;70796;52.406;13.230;2023-10-19T08:10:25;38.60;;;23.10;;
4915;SDS011;70796;52.406;13.230;2023-10-19T08:12:54;39.10;;;23.60;;
4915;SDS011;70796;52.406;13.230;2023-10-19T08:15:23;38.43;;;23.93;;
4915;SDS011;70796;52.406;13.230;2023-10-19T08:17:51;38.87;;;22.37;;
4915;SDS011;70796;52.406;13.230;2023-10-19T08:20:20;35.40;;;21.90;;
4915;SDS011;70796;52.406;13.230;2023-10-19T08:22:52;42.30;;;22.47;;
4915;SDS011;70796;52.406;13.230;2023-10-19T08:25:20;43.10;;;23.47;;
4915;SDS011;70796;52.406;13.230;2023-10-19T08:27:48;41.03;;;24.40;;
4915;SDS011;70796;52.406;13.230;2023-10-19T08:30:17;40.33;;;22.93;;
4915;SDS011;70796;52.406;13.230;2023-10-19T08:32:47;38.50;;;23.67;;
4915;SDS011;70796;52.406;13.230;2023-10-19T08:35:19;38.40;;;22.90;;
4915;SDS011;70796;52.406;13.230;2023-10-19T08:37:52;38.07;;;22.70;;
4915;SDS011;70796;52.406;13.230;2023-10-19T08:40:19;41.47;;;23.83;;
4915;SDS011;70796;52.406;13.230;2023-10-19T08:42:46;36.60;;;22.60;;
4915;SDS011;70796;52.406;13.230;2023-10-19T08:45:12;40.27;;;23.03;;
4915;SDS011;70796;52.406;13.230;2023-10-19T08:47:41;39.40;;;22.80;;
4915;SDS011;70796;52.406;13.230;2023-10-19T08:50:10;39.90;;;23.70;;
4915;SDS011;70796;52.406;13.230;2023-10-19T08:52:39;41.33;;;22.80;;
4915;SDS011;70796;52.406;13.230;2023-10-19T08:55:06;36.90;;;22.70;;
4915;SDS011;70796;52.406;13.230;2023-10-19T08:57:32;41.63;;;24.43;;
4915;SDS011;70796;52.406;13.230;2023-10-19T08:59:59;39.43;;;22.40;;
4915;SDS011;70796;52.406;13.230;2023-10-19T09:02:27;35.47;;;23.30;;
4915;SDS011;70796;52.406;13.230;2023-10-19T09:04:54;40.60;;;24.10;;
4915;SDS011;70796;52.406;13.230;2023-10-19T09:07:25;37.60;;;22.60;;
4915;SDS011;70796;52.406;13.230;2023-10-19T09:09:57;36.30;;;22.73;;
4915;SDS011;70796;52.406;13.230;2023-10-19T09:12:24;37.97;;;23.30;;
4915;SDS011;70796;52.406;13.230;2023-10-19T09:14:50;39.70;;;25.00;;
4915;SDS011;70796;52.406;13.230;2023-10-19T09:17:17;37.30;;;23.40;;
4915;SDS011;70796;52.406;13.230;2023-10-19T09:19:55;36.90;;;23.97;;
4915;SDS011;70796;52.406;13.230;2023-10-19T09:22:23;37.90;;;23.97;;
4915;SDS011;70796;52.406;13.230;2023-10-19T09:24:52;37.23;;;24.57;;
4915;SDS011;70796;52.406;13.230;2023-10-19T09:27:22;47.20;;;24.43;;
4915;SDS011;70796;52.406;13.230;2023-10-19T09:29:50;45.33;;;23.70;;
4915;SDS011;70796;52.406;13.230;2023-10-19T09:32:17;37.10;;;23.07;;
4915;SDS011;70796;52.406;13.230;2023-10-19T09:34:46;35.93;;;23.57;;
4915;SDS011;70796;52.406;13.230;2023-10-19T09:37:14;44.50;;;26.10;;
4915;SDS011;70796;52.406;13.230;2023-10-19T09:39:42;33.90;;;23.33;;
4915;SDS011;70796;52.406;13.230;2023-10-19T09:42:10;40.73;;;26.10;;
4915;SDS011;70796;52.406;13.230;2023-10-19T09:44:41;40.13;;;27.67;;
4915;SDS011;70796;52.406;13.230;2023-10-19T09:47:10;45.97;;;27.47;;
4915;SDS011;70796;52.406;13.230;2023-10-19T09:49:41;42.43;;;26.40;;
4915;SDS011;70796;52.406;13.230;2023-10-19T09:52:09;45.77;;;26.87;;
4915;SDS011;70796;52.406;13.230;2023-10-19T09:54:40;50.57;;;27.60;;
4915;SDS011;70796;52.406;13.230;2023-10-19T09:57:10;41.30;;;25.60;;
4915;SDS011;70796;52.406;13.230;2023-10-19T09:59:44;43.63;;;27.23;;
4915;SDS011;70796;52.406;13.230;2023-10-19T10:02:12;42.50;;;27.33;;
4915;SDS011;70796;52.406;13.230;2023-10-19T10:04:42;44.93;;;28.70;;
4915;SDS011;70796;52.406;13.230;2023-10-19T10:07:11;44.67;;;28.20;;
4915;SDS011;70796;52.406;13.230;2023-10-19T10:09:40;49.43;;;29.10;;
4915;SDS011;70796;52.406;13.230;2023-10-19T10:12:20;47.33;;;26.37;;
4915;SDS011;70796;52.406;13.230;2023-10-19T10:14:57;49.60;;;29.20;;
4915;SDS011;70796;52.406;13.230;2023-10-19T10:17:25;44.20;;;28.83;;
4915;SDS011;70796;52.406;13.230;2023-10-19T10:19:53;48.63;;;30.13;;
4915;SDS011;70796;52.406;13.230;2023-10-19T10:22:21;44.30;;;28.80;;
4915;SDS011;70796;52.406;13.230;2023-10-19T10:24:47;45.93;;;28.50;;
4915;SDS011;70796;52.406;13.230;2023-10-19T10:27:20;52.00;;;30.47;;
4915;SDS011;70796;52.406;13.230;2023-10-19T10:29:53;57.60;;;31.07;;
4915;SDS011;70796;52.406;13.230;2023-10-19T10:35:05;45.20;;;29.63;;
4915;SDS011;70796;52.406;13.230;2023-10-19T10:37:33;50.63;;;30.27;;
4915;SDS011;70796;52.406;13.230;2023-10-19T10:40:02;46.33;;;29.80;;
4915;SDS011;70796;52.406;13.230;2023-10-19T10:42:32;51.27;;;30.80;;
4915;SDS011;70796;52.406;13.230;2023-10-19T10:45:00;54.63;;;33.07;;
4915;SDS011;70796;52.406;13.230;2023-10-19T10:47:29;51.07;;;32.33;;
4915;SDS011;70796;52.406;13.230;2023-10-19T10:49:58;52.27;;;31.57;;
4915;SDS011;70796;52.406;13.230;2023-10-19T10:54:56;55.77;;;32.07;;
4915;SDS011;70796;52.406;13.230;2023-10-19T10:57:23;66.67;;;33.40;;
4915;SDS011;70796;52.406;13.230;2023-10-19T11:00:00;53.70;;;31.60;;
4915;SDS011;70796;52.406;13.230;2023-10-19T11:02:27;52.30;;;30.90;;
4915;SDS011;70796;52.406;13.230;2023-10-19T11:04:53;57.67;;;31.63;;
4915;SDS011;70796;52.406;13.230;2023-10-19T11:07:21;53.40;;;31.87;;
4915;SDS011;70796;52.406;13.230;2023-10-19T11:09:48;58.10;;;35.20;;
4915;SDS011;70796;52.406;13.230;2023-10-19T11:12:15;53.97;;;33.20;;
4915;SDS011;70796;52.406;13.230;2023-10-19T11:14:55;52.70;;;32.53;;
4915;SDS011;70796;52.406;13.230;2023-10-19T11:17:22;61.30;;;34.20;;
4915;SDS011;70796;52.406;13.230;2023-10-19T11:19:57;58.43;;;34.20;;
4915;SDS011;70796;52.406;13.230;2023-10-19T11:22:25;72.00;;;34.00;;
4915;SDS011;70796;52.406;13.230;2023-10-19T11:24:53;56.43;;;33.43;;
4915;SDS011;70796;52.406;13.230;2023-10-19T11:27:27;65.10;;;33.93;;
4915;SDS011;70796;52.406;13.230;2023-10-19T11:29:58;63.10;;;36.30;;
4915;SDS011;70796;52.406;13.230;2023-10-19T11:32:25;59.20;;;35.60;;
4915;SDS011;70796;52.406;13.230;2023-10-19T11:34:53;52.67;;;32.10;;
4915;SDS011;70796;52.406;13.230;2023-10-19T11:37:20;56.60;;;33.77;;
4915;SDS011;70796;52.406;13.230;2023-10-19T11:39:48;56.10;;;31.50;;
4915;SDS011;70796;52.406;13.230;2023-10-19T11:42:17;56.50;;;31.73;;
4915;SDS011;70796;52.406;13.230;2023-10-19T11:44:44;50.00;;;31.40;;
4915;SDS011;70796;52.406;13.230;2023-10-19T11:47:12;46.80;;;29.90;;
4915;SDS011;70796;52.406;13.230;2023-10-19T11:49:42;45.57;;;30.63;;
4915;SDS011;70796;52.406;13.230;2023-10-19T11:52:10;51.60;;;29.80;;
4915;SDS011;70796;52.406;13.230;2023-10-19T11:54:36;52.10;;;29.90;;
4915;SDS011;70796;52.406;13.230;2023-10-19T11:57:05;50.90;;;30.47;;
4915;SDS011;70796;52.406;13.230;2023-10-19T11:59:32;56.07;;;28.33;;
4915;SDS011;70796;52.406;13.230;2023-10-19T12:01:59;43.23;;;26.40;;
4915;SDS011;70796;52.406;13.230;2023-10-19T12:04:30;48.90;;;28.73;;
4915;SDS011;70796;52.406;13.230;2023-10-19T12:06:59;42.07;;;28.50;;
4915;SDS011;70796;52.406;13.230;2023-10-19T12:09:27;45.93;;;29.30;;
4915;SDS011;70796;52.406;13.230;2023-10-19T12:11:54;47.73;;;27.73;;
4915;SDS011;70796;52.406;13.230;2023-10-19T12:14:21;47.80;;;29.00;;
4915;SDS011;70796;52.406;13.230;2023-10-19T12:16:47;59.50;;;31.80;;
4915;SDS011;70796;52.406;13.230;2023-10-19T12:19:14;57.20;;;30.50;;
4915;SDS011;70796;52.406;13.230;2023-10-19T12:21:41;58.97;;;30.90;;
4915;SDS011;70796;52.406;13.230;2023-10-19T12:24:08;54.30;;;31.53;;
4915;SDS011;70796;52.406;13.230;2023-10-19T12:26:35;56.47;;;32.20;;
4915;SDS011;70796;52.406;13.230;2023-10-19T12:29:01;64.73;;;33.33;;
4915;SDS011;70796;52.406;13.230;2023-10-19T12:31:30;54.57;;;31.93;;
4915;SDS011;70796;52.406;13.230;2023-10-19T12:33:57;57.73;;;34.60;;
4915;SDS011;70796;52.406;13.230;2023-10-19T12:36:24;59.13;;;33.40;;
4915;SDS011;70796;52.406;13.230;2023-10-19T12:39:01;56.60;;;32.47;;
4915;SDS011;70796;52.406;13.230;2023-10-19T12:41:28;55.37;;;31.77;;
4915;SDS011;70796;52.406;13.230;2023-10-19T12:43:54;63.50;;;33.50;;
4915;SDS011;70796;52.406;13.230;2023-10-19T12:46:24;61.93;;;32.97;;
4915;SDS011;70796;52.406;13.230;2023-10-19T12:48:57;64.13;;;36.13;;
4915;SDS011;70796;52.406;13.230;2023-10-19T12:51:24;64.20;;;34.70;;
4915;SDS011;70796;52.406;13.230;2023-10-19T12:53:51;68.90;;;35.97;;
4915;SDS011;70796;52.406;13.230;2023-10-19T12:56:18;64.70;;;36.03;;
4915;SDS011;70796;52.406;13.230;2023-10-19T12:58:44;56.57;;;31.40;;
4915;SDS011;70796;52.406;13.230;2023-10-19T13:01:11;69.00;;;37.37;;
4915;SDS011;70796;52.406;13.230;2023-10-19T13:03:45;60.33;;;34.63;;
4915;SDS011;70796;52.406;13.230;2023-10-19T13:06:16;68.47;;;35.03;;
4915;SDS011;70796;52.406;13.230;2023-10-19T13:08:43;59.87;;;35.50;;
4915;SDS011;70796;52.406;13.230;2023-10-19T13:11:10;73.80;;;36.37;;
4915;SDS011;70796;52.406;13.230;2023-10-19T13:13:44;73.77;;;37.13;;
4915;SDS011;70796;52.406;13.230;2023-10-19T13:16:10;63.87;;;36.60;;
4915;SDS011;70796;52.406;13.230;2023-10-19T13:18:37;63.67;;;37.20;;
4915;SDS011;70796;52.406;13.230;2023-10-19T13:21:06;69.30;;;37.73;;
4915;SDS011;70796;52.406;13.230;2023-10-19T13:23:35;74.33;;;38.83;;
4915;SDS011;70796;52.406;13.230;2023-10-19T13:26:02;68.50;;;37.43;;
4915;SDS011;70796;52.406;13.230;2023-10-19T13:28:46;61.27;;;37.03;;
4915;SDS011;70796;52.406;13.230;2023-10-19T13:31:13;68.57;;;39.17;;
4915;SDS011;70796;52.406;13.230;2023-10-19T13:33:40;65.20;;;36.80;;
4915;SDS011;70796;52.406;13.230;2023-10-19T13:36:07;67.30;;;37.70;;
4915;SDS011;70796;52.406;13.230;2023-10-19T13:38:35;73.27;;;37.63;;
4915;SDS011;70796;52.406;13.230;2023-10-19T13:41:05;64.93;;;37.30;;
4915;SDS011;70796;52.406;13.230;2023-10-19T13:43:37;75.40;;;37.27;;
4915;SDS011;70796;52.406;13.230;2023-10-19T13:46:23;60.17;;;37.70;;
4915;SDS011;70796;52.406;13.230;2023-10-19T13:48:50;72.37;;;38.97;;
4915;SDS011;70796;52.406;13.230;2023-10-19T13:51:17;66.83;;;39.27;;
4915;SDS011;70796;52.406;13.230;2023-10-19T13:53:45;63.07;;;36.90;;
4915;SDS011;70796;52.406;13.230;2023-10-19T13:56:12;58.20;;;37.00;;
4915;SDS011;70796;52.406;13.230;2023-10-19T13:58:38;68.77;;;37.67;;
4915;SDS011;70796;52.406;13.230;2023-10-19T14:01:09;61.27;;;36.30;;
4915;SDS011;70796;52.406;13.230;2023-10-19T14:03:39;64.07;;;37.97;;
4915;SDS011;70796;52.406;13.230;2023-10-19T14:06:10;65.00;;;37.47;;
4915;SDS011;70796;52.406;13.230;2023-10-19T14:08:38;61.20;;;38.20;;
4915;SDS011;70796;52.406;13.230;2023-10-19T14:11:05;62.37;;;38.90;;
4915;SDS011;70796;52.406;13.230;2023-10-19T14:13:33;64.93;;;38.60;;
4915;SDS011;70796;52.406;13.230;2023-10-19T14:16:04;77.17;;;40.43;;
4915;SDS011;70796;52.406;13.230;2023-10-19T14:18:31;65.47;;;41.17;;
4915;SDS011;70796;52.406;13.230;2023-10-19T14:20:58;68.13;;;41.23;;
4915;SDS011;70796;52.406;13.230;2023-10-19T14:23:26;68.03;;;40.73;;
4915;SDS011;70796;52.406;13.230;2023-10-19T14:25:53;70.80;;;40.80;;
4915;SDS011;70796;52.406;13.230;2023-10-19T14:28:20;73.27;;;42.00;;
4915;SDS011;70796;52.406;13.230;2023-10-19T14:30:51;73.07;;;40.80;;
4915;SDS011;70796;52.406;13.230;2023-10-19T14:33:21;70.40;;;41.70;;
4915;SDS011;70796;52.406;13.230;2023-10-19T14:35:50;73.67;;;44.27;;
4915;SDS011;70796;52.406;13.230;2023-10-19T14:38:17;77.63;;;44.93;;